createdAt,value
2019-06-15T00:02:42.664Z,17.20
2019-06-15T00:05:30.877Z,17.20
2019-06-15T00:08:18.659Z,17.20
2019-06-15T00:11:06.412Z,17.20
2019-06-15T00:13:54.197Z,17.20
2019-06-15T00:16:41.993Z,17.20
2019-06-15T00:19:29.756Z,17.20
2019-06-15T00:22:17.541Z,17.20
2019-06-15T00:25:24.616Z,17.20
2019-06-15T00:28:12.402Z,17.20
2019-06-15T00:30:51.162Z,17.20
2019-06-15T00:33:38.947Z,17.20
2019-06-15T00:36:26.735Z,17.20
2019-06-15T00:39:14.485Z,17.20
2019-06-15T00:42:02.287Z,17.20
2019-06-15T00:44:50.050Z,17.20
2019-06-15T00:47:37.827Z,17.20
2019-06-15T00:50:25.620Z,17.20
2019-06-15T00:53:13.380Z,17.20
2019-06-15T00:56:01.197Z,17.20
2019-06-15T00:58:48.983Z,17.20
2019-06-15T01:01:36.818Z,17.30
2019-06-15T01:04:24.625Z,17.20
2019-06-15T01:07:12.381Z,17.30
2019-06-15T01:10:00.155Z,17.20
2019-06-15T01:12:47.948Z,17.20
2019-06-15T01:15:35.716Z,17.20
2019-06-15T01:18:23.503Z,17.20
2019-06-15T01:21:11.256Z,17.20
2019-06-15T01:23:59.031Z,17.20
2019-06-15T01:26:46.792Z,17.20
2019-06-15T01:29:34.904Z,17.20
2019-06-15T01:32:22.711Z,17.20
2019-06-15T01:35:10.534Z,17.20
2019-06-15T01:37:58.342Z,17.20
2019-06-15T01:40:46.111Z,17.20
2019-06-15T01:43:33.895Z,17.10
2019-06-15T01:46:21.660Z,17.20
2019-06-15T01:49:09.443Z,17.10
2019-06-15T01:51:57.195Z,17.10
2019-06-15T01:54:44.979Z,17.10
2019-06-15T01:57:32.754Z,17.10
2019-06-15T02:00:41.262Z,17.10
2019-06-15T02:03:29.043Z,17.10
2019-06-15T02:06:16.831Z,17.10
2019-06-15T02:09:25.314Z,17.10
2019-06-15T02:12:13.079Z,17.10
2019-06-15T02:15:00.841Z,17.00
2019-06-15T02:17:48.687Z,17.10
2019-06-15T02:20:17.236Z,17.00
2019-06-15T02:22:58.269Z,17.00
2019-06-15T02:25:38.784Z,17.00
2019-06-15T02:28:19.708Z,17.00
2019-06-15T02:31:00.599Z,16.90
2019-06-15T02:33:41.736Z,17.00
2019-06-15T02:36:22.539Z,16.90
2019-06-15T02:39:04.505Z,16.90
2019-06-15T02:41:45.324Z,16.90
2019-06-15T02:44:25.880Z,16.90
2019-06-15T02:47:06.773Z,16.90
2019-06-15T02:49:47.580Z,16.90
2019-06-15T02:52:28.300Z,17.00
2019-06-15T02:55:09.063Z,17.00
2019-06-15T02:57:49.739Z,17.00
2019-06-15T03:00:30.824Z,17.00
2019-06-15T03:03:11.478Z,17.00
2019-06-15T03:05:52.257Z,17.00
2019-06-15T03:08:32.730Z,17.10
2019-06-15T03:11:13.196Z,17.10
2019-06-15T03:13:54.097Z,17.10
2019-06-15T03:16:34.634Z,17.10
2019-06-15T03:19:15.423Z,17.10
2019-06-15T03:21:43.883Z,17.10
2019-06-15T03:24:31.656Z,17.10
2019-06-15T03:27:19.418Z,17.20
2019-06-15T03:30:07.476Z,17.20
2019-06-15T03:32:55.255Z,17.20
2019-06-15T03:35:43.007Z,17.20
2019-06-15T03:38:30.791Z,17.20
2019-06-15T03:41:18.536Z,17.20
2019-06-15T03:44:06.311Z,17.30
2019-06-15T03:46:54.071Z,17.20
2019-06-15T03:49:42.208Z,17.30
2019-06-15T03:52:29.959Z,17.30
2019-06-15T03:55:17.742Z,17.30
2019-06-15T03:58:05.583Z,17.30
2019-06-15T04:01:12.708Z,17.30
2019-06-15T04:04:00.463Z,17.30
2019-06-15T04:09:25.167Z,17.30
2019-06-15T04:12:12.919Z,17.30
2019-06-15T04:15:00.747Z,17.30
2019-06-15T04:17:48.557Z,17.30
2019-06-15T04:20:36.350Z,17.30
2019-06-15T04:23:16.880Z,17.30
2019-06-15T04:25:57.626Z,17.30
2019-06-15T04:28:38.467Z,17.20
2019-06-15T04:31:19.257Z,17.20
2019-06-15T04:33:59.652Z,17.20
2019-06-15T04:36:40.515Z,17.20
2019-06-15T04:39:21.496Z,17.10
2019-06-15T04:42:02.435Z,17.20
2019-06-15T04:44:43.107Z,17.10
2019-06-15T04:47:23.589Z,17.10
2019-06-15T04:50:04.656Z,17.10
2019-06-15T04:52:45.367Z,17.10
2019-06-15T04:55:26.100Z,17.10
2019-06-15T04:58:06.696Z,17.10
2019-06-15T05:00:47.240Z,17.10
2019-06-15T05:03:27.603Z,17.00
2019-06-15T05:06:08.219Z,17.00
2019-06-15T05:08:48.691Z,17.00
2019-06-15T05:11:29.487Z,17.00
2019-06-15T05:14:10.516Z,16.90
2019-06-15T05:16:50.927Z,16.90
2019-06-15T05:19:31.279Z,16.90
2019-06-15T05:22:12.213Z,16.90
2019-06-15T05:24:52.982Z,16.90
2019-06-15T05:27:33.522Z,16.90
2019-06-15T05:30:14.299Z,16.90
2019-06-15T05:32:54.984Z,16.90
2019-06-15T05:35:35.761Z,16.80
2019-06-15T05:38:16.527Z,16.80
2019-06-15T05:40:57.528Z,16.80
2019-06-15T05:43:38.250Z,16.90
2019-06-15T05:46:19.033Z,16.80
2019-06-15T05:48:47.465Z,16.80
2019-06-15T05:51:35.311Z,16.90
2019-06-15T05:54:23.114Z,16.80
2019-06-15T05:56:51.535Z,16.80
2019-06-15T05:59:39.340Z,16.80
2019-06-15T06:02:27.171Z,16.80
2019-06-15T06:05:15.010Z,16.80
2019-06-15T06:08:02.790Z,16.80
2019-06-15T06:10:50.567Z,16.80
2019-06-15T06:13:38.491Z,16.80
2019-06-15T06:16:27.907Z,16.80
2019-06-15T06:19:15.698Z,16.80
2019-06-15T06:22:03.497Z,16.80
2019-06-15T06:24:51.260Z,16.80
2019-06-15T06:27:39.043Z,16.80
2019-06-15T06:30:19.909Z,16.80
2019-06-15T06:33:00.765Z,16.80
2019-06-15T06:35:41.743Z,16.90
2019-06-15T06:38:22.396Z,16.90
2019-06-15T06:41:03.209Z,16.90
2019-06-15T06:43:43.952Z,17.00
2019-06-15T06:46:24.860Z,17.00
2019-06-15T06:49:05.356Z,17.00
2019-06-15T06:51:46.317Z,17.10
2019-06-15T06:54:26.923Z,17.10
2019-06-15T06:56:55.376Z,17.10
2019-06-15T06:59:43.157Z,17.20
2019-06-15T07:02:30.922Z,17.20
2019-06-15T07:05:18.775Z,17.20
2019-06-15T07:08:06.557Z,17.30
2019-06-15T07:10:54.323Z,17.30
2019-06-15T07:13:42.464Z,17.30
2019-06-15T07:16:30.395Z,17.30
2019-06-15T07:19:18.195Z,17.30
2019-06-15T07:22:05.965Z,17.30
2019-06-15T07:24:46.325Z,17.30
2019-06-15T07:27:27.198Z,17.30
2019-06-15T07:30:10.388Z,17.30
2019-06-15T07:32:50.679Z,17.30
2019-06-15T07:35:31.715Z,17.30
2019-06-15T07:38:12.455Z,17.40
2019-06-15T07:40:53.555Z,17.40
2019-06-15T07:43:34.576Z,17.40
2019-06-15T07:46:15.087Z,17.40
2019-06-15T07:48:43.510Z,17.40
2019-06-15T07:51:31.286Z,17.40
2019-06-15T07:54:19.061Z,17.50
2019-06-15T07:57:06.853Z,17.50
2019-06-15T07:59:54.626Z,17.60
2019-06-15T08:02:42.410Z,17.60
2019-06-15T08:05:30.167Z,17.70
2019-06-15T08:08:17.954Z,17.80
2019-06-15T08:11:05.751Z,17.80
2019-06-15T08:16:41.063Z,17.90
2019-06-15T08:19:28.849Z,17.90
2019-06-15T08:22:16.763Z,18.00
2019-06-15T08:25:25.256Z,18.00
2019-06-15T08:28:13.053Z,18.00
2019-06-15T08:31:00.808Z,18.00
2019-06-15T08:33:41.060Z,18.00
2019-06-15T08:36:21.667Z,18.00
2019-06-15T08:39:02.632Z,18.00
2019-06-15T08:41:43.188Z,18.00
2019-06-15T08:44:23.968Z,18.00
2019-06-15T08:47:04.748Z,18.00
2019-06-15T08:49:45.467Z,18.00
2019-06-15T08:52:26.147Z,18.00
2019-06-15T08:55:07.031Z,18.00
2019-06-15T08:57:47.599Z,18.10
2019-06-15T09:00:28.552Z,18.10
2019-06-15T09:03:09.085Z,18.10
2019-06-15T09:05:49.752Z,18.10
2019-06-15T09:08:30.348Z,18.10
2019-06-15T09:11:11.167Z,18.20
2019-06-15T09:13:51.683Z,18.10
2019-06-15T09:16:32.636Z,18.20
2019-06-15T09:19:13.356Z,18.30
2019-06-15T09:21:54.294Z,18.30
2019-06-15T09:24:34.802Z,18.30
2019-06-15T09:27:15.632Z,18.40
2019-06-15T09:29:56.447Z,18.40
2019-06-15T09:32:37.133Z,18.40
2019-06-15T09:35:18.313Z,18.40
2019-06-15T09:37:58.976Z,18.40
2019-06-15T09:40:40.110Z,18.40
2019-06-15T09:43:20.907Z,18.40
2019-06-15T09:46:01.740Z,18.50
2019-06-15T09:48:41.976Z,18.60
2019-06-15T09:51:22.863Z,18.60
2019-06-15T09:54:04.077Z,18.60
2019-06-15T09:56:45.039Z,18.60
2019-06-15T09:59:26.539Z,18.60
2019-06-15T10:02:06.836Z,18.60
2019-06-15T10:04:47.781Z,18.60
2019-06-15T10:07:28.602Z,18.60
2019-06-15T10:10:09.356Z,18.50
2019-06-15T10:12:49.925Z,18.50
2019-06-15T10:15:30.909Z,18.50
2019-06-15T10:18:11.651Z,18.50
2019-06-15T10:20:52.463Z,18.50
2019-06-15T10:23:33.662Z,18.50
2019-06-15T10:26:14.307Z,18.50
2019-06-15T10:28:55.235Z,18.40
2019-06-15T10:31:35.764Z,18.50
2019-06-15T10:34:16.675Z,18.50
2019-06-15T10:36:57.749Z,18.50
2019-06-15T10:39:39.036Z,18.50
2019-06-15T10:42:22.626Z,18.50
2019-06-15T10:45:01.148Z,18.60
2019-06-15T10:47:29.563Z,18.70
2019-06-15T10:50:17.415Z,18.70
2019-06-15T10:53:05.188Z,18.70
2019-06-15T10:55:53.051Z,18.80
2019-06-15T10:58:40.816Z,18.70
2019-06-15T11:01:28.600Z,18.80
2019-06-15T11:04:16.436Z,18.90
2019-06-15T11:07:04.515Z,18.90
2019-06-15T11:09:52.295Z,18.90
2019-06-15T11:12:46.376Z,18.90
2019-06-15T11:15:29.733Z,19.00
2019-06-15T11:18:17.502Z,19.00
2019-06-15T11:21:05.287Z,19.00
2019-06-15T11:23:53.049Z,18.90
2019-06-15T11:26:33.307Z,18.90
2019-06-15T11:29:14.256Z,18.90
2019-06-15T11:31:55.111Z,18.90
2019-06-15T11:34:35.952Z,18.90
2019-06-15T11:37:17.237Z,19.00
2019-06-15T11:39:57.783Z,18.90
2019-06-15T11:42:38.626Z,19.00
2019-06-15T11:45:20.388Z,19.10
2019-06-15T11:48:01.476Z,19.20
2019-06-15T11:50:42.175Z,19.30
2019-06-15T11:53:22.772Z,19.40
2019-06-15T11:56:03.575Z,19.50
2019-06-15T11:58:44.463Z,19.50
2019-06-15T12:01:25.154Z,19.60
2019-06-15T12:04:05.925Z,19.60
2019-06-15T12:06:46.817Z,19.50
2019-06-15T12:09:27.784Z,19.50
2019-06-15T12:12:08.962Z,19.50
2019-06-15T12:14:49.428Z,19.50
2019-06-15T12:17:30.400Z,19.50
2019-06-15T12:20:11.313Z,19.40
2019-06-15T12:22:39.841Z,19.40
2019-06-15T12:25:27.705Z,19.40
2019-06-15T12:28:15.468Z,19.40
2019-06-15T12:31:03.298Z,19.40
2019-06-15T12:33:43.694Z,19.40
2019-06-15T12:36:24.291Z,19.40
2019-06-15T12:39:04.980Z,19.40
2019-06-15T12:41:45.855Z,19.50
2019-06-15T12:44:26.734Z,19.60
2019-06-15T12:47:07.487Z,19.70
2019-06-15T12:49:48.184Z,19.90
2019-06-15T12:52:28.947Z,20.10
2019-06-15T12:58:04.406Z,20.40
2019-06-15T13:01:02.391Z,20.50
2019-06-15T13:03:41.685Z,20.50
2019-06-15T13:06:29.488Z,20.60
2019-06-15T13:09:17.283Z,20.50
2019-06-15T13:12:05.375Z,20.50
2019-06-15T13:14:53.199Z,20.50
2019-06-15T13:17:41.355Z,20.50
2019-06-15T13:20:29.521Z,20.50
2019-06-15T13:23:17.320Z,20.60
2019-06-15T13:26:05.192Z,20.70
2019-06-15T13:28:52.952Z,20.80
2019-06-15T13:31:41.284Z,20.90
2019-06-15T13:34:30.855Z,21.00
2019-06-15T13:37:11.747Z,21.00
2019-06-15T13:39:52.515Z,21.00
2019-06-15T13:42:33.200Z,21.00
2019-06-15T13:45:14.248Z,21.00
2019-06-15T13:47:55.355Z,21.00
2019-06-15T13:50:23.806Z,21.00
2019-06-15T13:53:11.832Z,21.00
2019-06-15T13:55:59.629Z,21.00
2019-06-15T13:58:47.420Z,20.90
2019-06-15T14:01:35.299Z,20.90
2019-06-15T14:04:23.084Z,20.90
2019-06-15T14:07:10.896Z,20.80
2019-06-15T14:09:58.665Z,20.80
2019-06-15T14:12:46.523Z,20.80
2019-06-15T14:15:34.301Z,20.80
2019-06-15T14:18:22.081Z,20.80
2019-06-15T14:21:09.864Z,20.80
2019-06-15T14:23:57.658Z,20.80
2019-06-15T14:26:38.779Z,20.80
2019-06-15T14:29:19.640Z,20.90
2019-06-15T14:32:00.347Z,21.10
2019-06-15T14:34:40.971Z,21.40
2019-06-15T14:37:21.683Z,21.80
2019-06-15T14:40:02.702Z,22.10
2019-06-15T14:42:43.688Z,22.20
2019-06-15T14:45:24.617Z,22.30
2019-06-15T14:48:05.436Z,22.40
2019-06-15T14:50:46.248Z,22.40
2019-06-15T14:53:26.891Z,22.50
2019-06-15T14:56:07.759Z,22.50
2019-06-15T14:58:48.498Z,22.50
2019-06-15T15:01:30.101Z,22.40
2019-06-15T15:04:10.879Z,22.50
2019-06-15T15:06:51.997Z,22.60
2019-06-15T15:09:33.011Z,22.80
2019-06-15T15:12:16.030Z,22.80
2019-06-15T15:14:56.805Z,22.80
2019-06-15T15:17:37.416Z,22.80
2019-06-15T15:20:18.263Z,22.70
2019-06-15T15:22:59.079Z,22.60
2019-06-15T15:25:40.087Z,22.50
2019-06-15T15:28:21.345Z,22.50
2019-06-15T15:31:02.198Z,22.40
2019-06-15T15:33:42.940Z,22.30
2019-06-15T15:36:26.147Z,22.30
2019-06-15T15:39:09.931Z,22.30
2019-06-15T15:41:48.959Z,22.30
2019-06-15T15:44:29.942Z,22.30
2019-06-15T15:47:10.561Z,22.30
2019-06-15T15:49:51.065Z,22.30
2019-06-15T15:52:31.846Z,22.30
2019-06-15T15:55:12.163Z,22.30
2019-06-15T15:57:53.074Z,22.30
2019-06-15T16:00:33.815Z,22.30
2019-06-15T16:03:15.982Z,22.30
2019-06-15T16:05:56.527Z,22.30
2019-06-15T16:08:28.223Z,22.30
2019-06-15T16:11:16.315Z,22.30
2019-06-15T16:14:06.961Z,22.40
2019-06-15T16:16:55.855Z,22.40
2019-06-15T16:19:26.088Z,22.50
2019-06-15T16:21:55.953Z,22.50
2019-06-15T16:27:12.334Z,22.50
2019-06-15T16:29:40.767Z,22.50
2019-06-15T16:32:21.584Z,22.50
2019-06-15T16:35:02.291Z,22.40
2019-06-15T16:37:42.976Z,22.30
2019-06-15T16:40:26.208Z,22.20
2019-06-15T16:43:07.171Z,22.10
2019-06-15T16:45:48.266Z,22.10
2019-06-15T16:48:28.842Z,21.90
2019-06-15T16:51:09.572Z,21.80
2019-06-15T16:53:50.431Z,21.70
2019-06-15T16:56:31.218Z,21.60
2019-06-15T16:59:12.071Z,21.60
2019-06-15T17:01:52.490Z,21.50
2019-06-15T17:04:33.164Z,21.50
2019-06-15T17:07:13.734Z,21.50
2019-06-15T17:09:56.819Z,21.50
2019-06-15T17:12:37.313Z,21.50
2019-06-15T17:15:18.341Z,21.50
2019-06-15T17:17:59.283Z,21.50
2019-06-15T17:20:40.039Z,21.30
2019-06-15T17:23:20.471Z,21.30
2019-06-15T17:26:01.287Z,21.10
2019-06-15T17:28:42.116Z,21.00
2019-06-15T17:31:22.731Z,21.00
2019-06-15T17:34:03.794Z,20.80
2019-06-15T17:36:47.075Z,20.80
2019-06-15T17:39:29.629Z,20.60
2019-06-15T17:42:09.858Z,20.50
2019-06-15T17:44:50.179Z,20.40
2019-06-15T17:47:30.584Z,20.30
2019-06-15T17:50:11.567Z,20.30
2019-06-15T17:52:52.267Z,20.20
2019-06-15T17:55:33.367Z,20.20
2019-06-15T17:58:16.667Z,20.20
2019-06-15T18:00:57.579Z,20.20
2019-06-15T18:03:50.635Z,20.10
2019-06-15T18:06:20.152Z,20.10
2019-06-15T18:09:28.653Z,20.10
2019-06-15T18:12:16.440Z,20.00
2019-06-15T18:15:23.589Z,19.90
2019-06-15T18:18:11.377Z,19.80
2019-06-15T18:20:59.216Z,19.60
2019-06-15T18:23:46.999Z,19.60
2019-06-15T18:26:36.531Z,19.40
2019-06-15T18:29:26.316Z,19.40
2019-06-15T18:32:13.822Z,19.30
2019-06-15T18:35:01.655Z,19.20
2019-06-15T18:37:49.443Z,19.10
2019-06-15T18:40:37.470Z,19.00
2019-06-15T18:43:26.199Z,18.90
2019-06-15T18:46:14.715Z,18.90
2019-06-15T18:49:02.489Z,18.80
2019-06-15T18:51:50.258Z,18.70
2019-06-15T18:54:38.032Z,18.70
2019-06-15T18:57:26.935Z,18.60
2019-06-15T19:00:08.487Z,18.50
2019-06-15T19:02:49.185Z,18.40
2019-06-15T19:05:29.645Z,18.30
2019-06-15T19:08:10.611Z,18.20
2019-06-15T19:10:51.728Z,18.10
2019-06-15T19:13:32.067Z,18.00
2019-06-15T19:16:13.091Z,17.90
2019-06-15T19:18:56.554Z,17.70
2019-06-15T19:21:37.045Z,17.60
2019-06-15T19:24:17.974Z,17.50
2019-06-15T19:26:58.524Z,17.40
2019-06-15T19:29:39.424Z,17.30
2019-06-15T19:32:20.141Z,17.20
2019-06-15T19:35:01.178Z,17.10
2019-06-15T19:37:42.393Z,17.10
2019-06-15T19:40:22.964Z,17.00
2019-06-15T19:43:06.319Z,16.90
2019-06-15T19:45:46.128Z,16.90
2019-06-15T19:48:27.040Z,16.80
2019-06-15T19:51:10.151Z,16.80
2019-06-15T19:53:50.157Z,16.70
2019-06-15T19:56:30.490Z,16.70
2019-06-15T20:02:24.061Z,16.60
2019-06-15T20:05:04.755Z,16.60
2019-06-15T20:07:46.580Z,16.50
2019-06-15T20:10:27.290Z,16.50
2019-06-15T20:13:07.951Z,16.40
2019-06-15T20:15:48.505Z,16.40
2019-06-15T20:18:30.113Z,16.40
2019-06-15T20:21:11.096Z,16.40
2019-06-15T20:23:51.902Z,16.40
2019-06-15T20:26:32.718Z,16.40
2019-06-15T20:29:13.551Z,16.30
2019-06-15T20:31:54.108Z,16.30
2019-06-15T20:34:37.021Z,16.30
2019-06-15T20:37:17.723Z,16.30
2019-06-15T20:39:58.628Z,16.20
2019-06-15T20:42:39.259Z,16.20
2019-06-15T20:45:19.723Z,16.20
2019-06-15T20:48:00.549Z,16.10
2019-06-15T20:50:41.321Z,16.10
2019-06-15T20:53:22.107Z,16.10
2019-06-15T20:56:03.011Z,16.00
2019-06-15T20:58:43.804Z,16.00
2019-06-15T21:01:25.998Z,16.10
2019-06-15T21:04:07.487Z,16.00
2019-06-15T21:06:47.848Z,16.00
2019-06-15T21:09:28.747Z,16.00
2019-06-15T21:12:09.377Z,16.00
2019-06-15T21:14:50.277Z,16.00
2019-06-15T21:17:30.729Z,16.00
2019-06-15T21:20:11.723Z,16.00
2019-06-15T21:22:52.257Z,15.90
2019-06-15T21:25:33.033Z,15.90
2019-06-15T21:28:13.675Z,15.90
2019-06-15T21:30:54.828Z,15.90
2019-06-15T21:33:36.056Z,15.90
2019-06-15T21:36:17.403Z,15.90
2019-06-15T21:38:58.398Z,15.80
2019-06-15T21:41:38.814Z,15.80
2019-06-15T21:44:19.278Z,15.80
2019-06-15T21:46:59.932Z,15.90
2019-06-15T21:49:40.736Z,15.80
2019-06-15T21:52:21.068Z,15.90
2019-06-15T21:55:01.861Z,15.80
2019-06-15T21:57:42.654Z,15.80
2019-06-15T22:00:28.162Z,15.80
2019-06-15T22:03:05.408Z,15.90
2019-06-15T22:05:33.834Z,15.80
2019-06-15T22:08:02.466Z,15.90
2019-06-15T22:10:31.071Z,15.80
2019-06-15T22:12:59.583Z,15.80
2019-06-15T22:15:27.995Z,15.80
2019-06-15T22:17:56.426Z,15.90
2019-06-15T22:20:26.319Z,15.80
2019-06-15T22:22:55.091Z,15.80
2019-06-15T22:25:23.500Z,15.80
2019-06-15T22:27:52.016Z,15.90
2019-06-15T22:30:20.951Z,15.80
2019-06-15T22:32:49.439Z,15.80
2019-06-15T22:35:17.931Z,15.80
2019-06-15T22:37:46.785Z,15.90
2019-06-15T22:40:16.529Z,15.80
2019-06-15T22:42:47.020Z,15.80
2019-06-15T22:45:17.270Z,15.80
2019-06-15T22:47:46.756Z,15.80
2019-06-15T22:50:16.148Z,15.80
2019-06-15T22:52:47.171Z,15.80
2019-06-15T22:55:16.550Z,15.80
2019-06-15T22:57:46.117Z,15.80
2019-06-15T23:00:17.199Z,15.80
2019-06-15T23:02:46.181Z,15.80
2019-06-15T23:05:16.945Z,15.80
2019-06-15T23:07:46.979Z,15.80
2019-06-15T23:10:16.658Z,15.70
2019-06-15T23:12:46.425Z,15.70
2019-06-15T23:15:17.340Z,15.70
2019-06-15T23:17:46.709Z,15.70
2019-06-15T23:20:17.118Z,15.70
2019-06-15T23:22:46.799Z,15.70
2019-06-15T23:25:16.746Z,15.70
2019-06-15T23:27:46.897Z,15.70
2019-06-15T23:30:16.130Z,15.60
2019-06-15T23:32:46.891Z,15.60
2019-06-15T23:35:16.822Z,15.60
2019-06-15T23:37:46.496Z,15.60
2019-06-15T23:40:22.855Z,15.60
2019-06-15T23:42:51.361Z,15.50
2019-06-15T23:45:20.803Z,15.50
2019-06-15T23:47:49.673Z,15.50
2019-06-15T23:50:20.719Z,15.50
2019-06-15T23:52:49.403Z,15.50
2019-06-15T23:55:18.362Z,15.50
2019-06-15T23:57:46.786Z,15.50
